sensor_id;sensor_type;location;lat;lon;timestamp;temperature;humidity
44707;DHT22;30433;45.596;8.408;2023-03-23T00:00:16;9.20;99.90
44707;DHT22;30433;45.596;8.408;2023-03-23T00:06:19;8.70;99.60
44707;DHT22;30433;45.596;8.408;2023-03-23T00:12:24;8.80;99.90
44707;DHT22;30433;45.596;8.408;2023-03-23T00:18:29;8.90;99.90
44707;DHT22;30433;45.596;8.408;2023-03-23T00:24:31;9.80;99.90
44707;DHT22;30433;45.596;8.408;2023-03-23T00:30:35;9.40;99.80
44707;DHT22;30433;45.596;8.408;2023-03-23T00:36:37;9.00;99.90
44707;DHT22;30433;45.596;8.408;2023-03-23T00:42:56;9.10;99.90
44707;DHT22;30433;45.596;8.408;2023-03-23T00:48:58;9.90;99.30
44707;DHT22;30433;45.596;8.408;2023-03-23T00:55:00;9.60;99.80
44707;DHT22;30433;45.596;8.408;2023-03-23T01:01:03;10.20;98.90
44707;DHT22;30433;45.596;8.408;2023-03-23T01:07:05;10.00;98.80
44707;DHT22;30433;45.596;8.408;2023-03-23T01:13:08;9.90;99.30
44707;DHT22;30433;45.596;8.408;2023-03-23T01:19:11;9.40;99.80
44707;DHT22;30433;45.596;8.408;2023-03-23T01:25:14;8.60;99.90
44707;DHT22;30433;45.596;8.408;2023-03-23T01:31:16;8.90;99.90
44707;DHT22;30433;45.596;8.408;2023-03-23T01:37:20;9.80;99.90
44707;DHT22;30433;45.596;8.408;2023-03-23T01:43:26;9.70;99.80
44707;DHT22;30433;45.596;8.408;2023-03-23T01:49:29;10.10;98.90
44707;DHT22;30433;45.596;8.408;2023-03-23T01:55:34;10.10;99.00
44707;DHT22;30433;45.596;8.408;2023-03-23T02:01:39;10.30;98.60
44707;DHT22;30433;45.596;8.408;2023-03-23T02:07:45;10.30;98.60
44707;DHT22;30433;45.596;8.408;2023-03-23T02:13:49;10.50;98.30
44707;DHT22;30433;45.596;8.408;2023-03-23T02:20:11;10.60;98.20
44707;DHT22;30433;45.596;8.408;2023-03-23T02:26:19;10.40;98.60
44707;DHT22;30433;45.596;8.408;2023-03-23T02:32:36;10.30;98.90
44707;DHT22;30433;45.596;8.408;2023-03-23T02:38:44;10.30;99.10
44707;DHT22;30433;45.596;8.408;2023-03-23T02:44:51;10.30;99.00
44707;DHT22;30433;45.596;8.408;2023-03-23T02:50:53;10.20;99.10
44707;DHT22;30433;45.596;8.408;2023-03-23T02:56:57;10.10;99.60
44707;DHT22;30433;45.596;8.408;2023-03-23T03:02:59;10.40;99.00
44707;DHT22;30433;45.596;8.408;2023-03-23T03:09:01;10.10;99.20
44707;DHT22;30433;45.596;8.408;2023-03-23T03:15:09;10.00;99.40
44707;DHT22;30433;45.596;8.408;2023-03-23T03:21:13;10.00;99.40
44707;DHT22;30433;45.596;8.408;2023-03-23T03:27:17;10.00;99.30
44707;DHT22;30433;45.596;8.408;2023-03-23T03:33:21;9.10;99.90
44707;DHT22;30433;45.596;8.408;2023-03-23T03:39:26;9.20;99.90
44707;DHT22;30433;45.596;8.408;2023-03-23T03:45:28;9.60;99.90
44707;DHT22;30433;45.596;8.408;2023-03-23T03:51:31;9.50;99.90
44707;DHT22;30433;45.596;8.408;2023-03-23T03:57:34;9.60;99.90
44707;DHT22;30433;45.596;8.408;2023-03-23T04:03:36;9.50;99.90
44707;DHT22;30433;45.596;8.408;2023-03-23T04:09:39;9.60;99.90
44707;DHT22;30433;45.596;8.408;2023-03-23T04:15:42;9.20;99.90
44707;DHT22;30433;45.596;8.408;2023-03-23T04:21:44;9.30;99.90
44707;DHT22;30433;45.596;8.408;2023-03-23T04:27:51;9.40;99.90
44707;DHT22;30433;45.596;8.408;2023-03-23T04:33:53;9.50;99.90
44707;DHT22;30433;45.596;8.408;2023-03-23T04:39:55;8.80;99.90
44707;DHT22;30433;45.596;8.408;2023-03-23T04:46:02;9.10;99.90
44707;DHT22;30433;45.596;8.408;2023-03-23T04:52:08;9.20;99.90
44707;DHT22;30433;45.596;8.408;2023-03-23T04:58:10;9.70;99.90
44707;DHT22;30433;45.596;8.408;2023-03-23T05:04:16;9.80;99.90
44707;DHT22;30433;45.596;8.408;2023-03-23T05:10:18;9.70;99.90
44707;DHT22;30433;45.596;8.408;2023-03-23T05:16:20;9.70;99.90
44707;DHT22;30433;45.596;8.408;2023-03-23T05:22:23;9.80;99.90
44707;DHT22;30433;45.596;8.408;2023-03-23T05:28:25;9.60;99.90
44707;DHT22;30433;45.596;8.408;2023-03-23T05:34:27;9.10;99.90
44707;DHT22;30433;45.596;8.408;2023-03-23T05:40:30;9.50;99.90
44707;DHT22;30433;45.596;8.408;2023-03-23T05:46:32;9.70;99.90
44707;DHT22;30433;45.596;8.408;2023-03-23T05:52:34;9.90;99.90
44707;DHT22;30433;45.596;8.408;2023-03-23T05:58:38;10.00;99.90
44707;DHT22;30433;45.596;8.408;2023-03-23T06:04:40;9.80;99.90
44707;DHT22;30433;45.596;8.408;2023-03-23T06:10:41;9.40;99.90
44707;DHT22;30433;45.596;8.408;2023-03-23T06:16:45;9.80;99.90
44707;DHT22;30433;45.596;8.408;2023-03-23T06:22:47;9.90;99.90
44707;DHT22;30433;45.596;8.408;2023-03-23T06:28:49;10.10;99.90
44707;DHT22;30433;45.596;8.408;2023-03-23T06:34:52;9.80;99.90
44707;DHT22;30433;45.596;8.408;2023-03-23T06:40:55;10.10;99.90
44707;DHT22;30433;45.596;8.408;2023-03-23T06:46:57;10.40;99.90
44707;DHT22;30433;45.596;8.408;2023-03-23T06:53:00;10.60;99.90
44707;DHT22;30433;45.596;8.408;2023-03-23T06:59:02;10.90;99.90
44707;DHT22;30433;45.596;8.408;2023-03-23T07:05:04;11.10;99.90
44707;DHT22;30433;45.596;8.408;2023-03-23T07:11:08;11.30;99.90
44707;DHT22;30433;45.596;8.408;2023-03-23T07:17:11;11.50;99.90
44707;DHT22;30433;45.596;8.408;2023-03-23T07:23:13;11.80;99.90
44707;DHT22;30433;45.596;8.408;2023-03-23T07:29:17;11.90;99.90
44707;DHT22;30433;45.596;8.408;2023-03-23T07:35:18;11.90;99.90
44707;DHT22;30433;45.596;8.408;2023-03-23T07:41:20;11.70;99.90
44707;DHT22;30433;45.596;8.408;2023-03-23T07:47:24;11.70;99.90
44707;DHT22;30433;45.596;8.408;2023-03-23T07:53:26;11.70;99.90
44707;DHT22;30433;45.596;8.408;2023-03-23T07:59:28;11.90;99.90
44707;DHT22;30433;45.596;8.408;2023-03-23T08:05:32;12.50;99.60
44707;DHT22;30433;45.596;8.408;2023-03-23T08:11:34;12.80;98.90
44707;DHT22;30433;45.596;8.408;2023-03-23T08:17:36;13.30;98.30
44707;DHT22;30433;45.596;8.408;2023-03-23T08:23:39;13.40;97.90
44707;DHT22;30433;45.596;8.408;2023-03-23T08:29:43;13.70;98.10
44707;DHT22;30433;45.596;8.408;2023-03-23T08:35:45;14.00;97.20
44707;DHT22;30433;45.596;8.408;2023-03-23T08:41:48;13.90;97.80
44707;DHT22;30433;45.596;8.408;2023-03-23T08:47:50;14.30;96.50
44707;DHT22;30433;45.596;8.408;2023-03-23T08:53:55;14.60;96.60
44707;DHT22;30433;45.596;8.408;2023-03-23T08:59:58;14.70;97.20
44707;DHT22;30433;45.596;8.408;2023-03-23T09:06:08;15.00;95.60
44707;DHT22;30433;45.596;8.408;2023-03-23T09:12:12;15.10;96.00
44707;DHT22;30433;45.596;8.408;2023-03-23T09:18:16;15.90;95.30
44707;DHT22;30433;45.596;8.408;2023-03-23T09:24:18;15.90;92.60
44707;DHT22;30433;45.596;8.408;2023-03-23T09:30:21;16.00;92.70
44707;DHT22;30433;45.596;8.408;2023-03-23T09:36:24;16.30;92.80
44707;DHT22;30433;45.596;8.408;2023-03-23T09:42:33;16.20;92.40
44707;DHT22;30433;45.596;8.408;2023-03-23T09:48:42;16.70;92.80
44707;DHT22;30433;45.596;8.408;2023-03-23T09:54:48;16.70;93.10
44707;DHT22;30433;45.596;8.408;2023-03-23T10:00:52;17.00;91.50
44707;DHT22;30433;45.596;8.408;2023-03-23T10:06:56;17.10;92.40
44707;DHT22;30433;45.596;8.408;2023-03-23T10:13:02;17.00;92.50
44707;DHT22;30433;45.596;8.408;2023-03-23T10:19:09;17.40;94.20
44707;DHT22;30433;45.596;8.408;2023-03-23T10:25:15;17.20;94.50
44707;DHT22;30433;45.596;8.408;2023-03-23T10:31:19;17.10;93.90
44707;DHT22;30433;45.596;8.408;2023-03-23T10:37:23;17.20;93.90
44707;DHT22;30433;45.596;8.408;2023-03-23T10:43:26;17.50;94.10
44707;DHT22;30433;45.596;8.408;2023-03-23T10:49:31;17.20;94.30
44707;DHT22;30433;45.596;8.408;2023-03-23T10:55:35;17.00;95.80
44707;DHT22;30433;45.596;8.408;2023-03-23T11:01:38;17.20;96.10
44707;DHT22;30433;45.596;8.408;2023-03-23T11:07:47;17.40;96.70
44707;DHT22;30433;45.596;8.408;2023-03-23T11:13:49;17.00;95.70
44707;DHT22;30433;45.596;8.408;2023-03-23T11:19:53;17.50;97.20
44707;DHT22;30433;45.596;8.408;2023-03-23T11:25:58;17.70;96.20
44707;DHT22;30433;45.596;8.408;2023-03-23T11:32:04;17.60;96.70
44707;DHT22;30433;45.596;8.408;2023-03-23T11:38:11;17.50;96.50
44707;DHT22;30433;45.596;8.408;2023-03-23T11:44:20;17.50;96.80
44707;DHT22;30433;45.596;8.408;2023-03-23T11:50:22;17.70;95.90
44707;DHT22;30433;45.596;8.408;2023-03-23T11:56:26;17.90;95.90
44707;DHT22;30433;45.596;8.408;2023-03-23T12:02:37;17.60;95.90
44707;DHT22;30433;45.596;8.408;2023-03-23T12:08:45;17.50;96.50
44707;DHT22;30433;45.596;8.408;2023-03-23T12:14:51;18.20;96.20
44707;DHT22;30433;45.596;8.408;2023-03-23T12:21:00;18.40;95.90
44707;DHT22;30433;45.596;8.408;2023-03-23T12:27:05;18.10;94.90
44707;DHT22;30433;45.596;8.408;2023-03-23T12:33:21;18.30;94.60
44707;DHT22;30433;45.596;8.408;2023-03-23T12:45:53;18.00;94.60
44707;DHT22;30433;45.596;8.408;2023-03-23T12:51:57;18.70;95.20
44707;DHT22;30433;45.596;8.408;2023-03-23T12:58:01;18.60;94.70
44707;DHT22;30433;45.596;8.408;2023-03-23T13:04:06;18.30;93.70
44707;DHT22;30433;45.596;8.408;2023-03-23T13:10:12;19.10;95.00
44707;DHT22;30433;45.596;8.408;2023-03-23T13:16:19;19.20;94.60
44707;DHT22;30433;45.596;8.408;2023-03-23T13:22:25;18.30;94.20
44707;DHT22;30433;45.596;8.408;2023-03-23T13:28:29;18.30;93.50
44707;DHT22;30433;45.596;8.408;2023-03-23T13:34:31;18.90;94.80
44707;DHT22;30433;45.596;8.408;2023-03-23T13:40:35;18.50;92.50
44707;DHT22;30433;45.596;8.408;2023-03-23T13:46:37;18.60;92.30
44707;DHT22;30433;45.596;8.408;2023-03-23T13:52:48;18.50;93.20
44707;DHT22;30433;45.596;8.408;2023-03-23T13:58:52;18.90;93.20
44707;DHT22;30433;45.596;8.408;2023-03-23T14:05:10;18.50;92.10
44707;DHT22;30433;45.596;8.408;2023-03-23T14:11:14;18.60;92.40
44707;DHT22;30433;45.596;8.408;2023-03-23T14:17:18;19.00;92.20
44707;DHT22;30433;45.596;8.408;2023-03-23T14:23:20;19.10;92.00
44707;DHT22;30433;45.596;8.408;2023-03-23T14:29:23;18.80;91.90
44707;DHT22;30433;45.596;8.408;2023-03-23T14:35:27;18.90;92.10
44707;DHT22;30433;45.596;8.408;2023-03-23T14:41:30;18.50;91.70
44707;DHT22;30433;45.596;8.408;2023-03-23T14:47:33;18.50;90.80
44707;DHT22;30433;45.596;8.408;2023-03-23T14:53:38;18.50;91.10
44707;DHT22;30433;45.596;8.408;2023-03-23T14:59:40;18.70;91.80
44707;DHT22;30433;45.596;8.408;2023-03-23T15:05:43;18.40;91.60
44707;DHT22;30433;45.596;8.408;2023-03-23T15:11:52;18.50;92.50
44707;DHT22;30433;45.596;8.408;2023-03-23T15:17:55;18.60;92.00
44707;DHT22;30433;45.596;8.408;2023-03-23T15:23:57;18.60;92.10
44707;DHT22;30433;45.596;8.408;2023-03-23T15:30:11;18.60;92.40
44707;DHT22;30433;45.596;8.408;2023-03-23T15:36:15;18.70;91.60
44707;DHT22;30433;45.596;8.408;2023-03-23T15:42:19;18.80;91.10
44707;DHT22;30433;45.596;8.408;2023-03-23T15:48:23;18.80;91.50
44707;DHT22;30433;45.596;8.408;2023-03-23T15:54:29;19.00;90.80
44707;DHT22;30433;45.596;8.408;2023-03-23T16:00:31;18.80;91.10
44707;DHT22;30433;45.596;8.408;2023-03-23T16:06:34;18.90;90.40
44707;DHT22;30433;45.596;8.408;2023-03-23T16:12:36;18.70;90.40
44707;DHT22;30433;45.596;8.408;2023-03-23T16:18:38;18.60;90.20
44707;DHT22;30433;45.596;8.408;2023-03-23T16:24:41;18.50;90.20
44707;DHT22;30433;45.596;8.408;2023-03-23T16:30:43;18.50;90.40
44707;DHT22;30433;45.596;8.408;2023-03-23T16:36:45;18.50;91.50
44707;DHT22;30433;45.596;8.408;2023-03-23T16:42:48;18.40;91.50
44707;DHT22;30433;45.596;8.408;2023-03-23T16:48:51;18.30;92.20
44707;DHT22;30433;45.596;8.408;2023-03-23T16:54:52;18.00;94.50
44707;DHT22;30433;45.596;8.408;2023-03-23T17:00:56;17.80;95.10
44707;DHT22;30433;45.596;8.408;2023-03-23T17:06:58;17.60;95.50
44707;DHT22;30433;45.596;8.408;2023-03-23T17:13:00;17.30;95.50
44707;DHT22;30433;45.596;8.408;2023-03-23T17:19:03;17.10;95.20
44707;DHT22;30433;45.596;8.408;2023-03-23T17:25:07;17.00;95.30
44707;DHT22;30433;45.596;8.408;2023-03-23T17:31:09;16.70;95.60
44707;DHT22;30433;45.596;8.408;2023-03-23T17:37:12;16.50;95.70
44707;DHT22;30433;45.596;8.408;2023-03-23T17:43:14;16.30;95.30
44707;DHT22;30433;45.596;8.408;2023-03-23T17:49:16;16.30;95.50
44707;DHT22;30433;45.596;8.408;2023-03-23T17:55:19;16.20;95.90
44707;DHT22;30433;45.596;8.408;2023-03-23T18:01:21;15.70;96.20
44707;DHT22;30433;45.596;8.408;2023-03-23T18:07:23;15.90;95.90
44707;DHT22;30433;45.596;8.408;2023-03-23T18:13:28;15.70;96.00
44707;DHT22;30433;45.596;8.408;2023-03-23T18:19:30;15.50;95.90
44707;DHT22;30433;45.596;8.408;2023-03-23T18:25:32;15.40;96.10
44707;DHT22;30433;45.596;8.408;2023-03-23T18:31:36;15.30;96.20
44707;DHT22;30433;45.596;8.408;2023-03-23T18:37:39;14.90;96.30
44707;DHT22;30433;45.596;8.408;2023-03-23T18:43:42;15.00;96.10
44707;DHT22;30433;45.596;8.408;2023-03-23T18:49:45;14.80;96.60
44707;DHT22;30433;45.596;8.408;2023-03-23T18:55:51;14.20;97.00
44707;DHT22;30433;45.596;8.408;2023-03-23T19:01:53;14.10;97.00
44707;DHT22;30433;45.596;8.408;2023-03-23T19:07:56;14.10;97.00
44707;DHT22;30433;45.596;8.408;2023-03-23T19:13:58;14.00;96.90
44707;DHT22;30433;45.596;8.408;2023-03-23T19:20:00;14.10;97.20
44707;DHT22;30433;45.596;8.408;2023-03-23T19:26:04;13.30;98.10
44707;DHT22;30433;45.596;8.408;2023-03-23T19:32:06;13.60;97.80
44707;DHT22;30433;45.596;8.408;2023-03-23T19:38:08;13.30;98.10
44707;DHT22;30433;45.596;8.408;2023-03-23T19:44:12;13.70;97.90
44707;DHT22;30433;45.596;8.408;2023-03-23T19:50:14;13.10;98.30
44707;DHT22;30433;45.596;8.408;2023-03-23T19:56:17;13.20;98.30
44707;DHT22;30433;45.596;8.408;2023-03-23T20:02:22;13.40;97.70
44707;DHT22;30433;45.596;8.408;2023-03-23T20:08:24;13.10;98.00
44707;DHT22;30433;45.596;8.408;2023-03-23T20:14:26;12.90;98.20
44707;DHT22;30433;45.596;8.408;2023-03-23T20:20:29;12.60;99.10
44707;DHT22;30433;45.596;8.408;2023-03-23T20:26:32;13.00;98.60
44707;DHT22;30433;45.596;8.408;2023-03-23T20:32:34;12.90;98.30
44707;DHT22;30433;45.596;8.408;2023-03-23T20:38:38;12.50;99.20
44707;DHT22;30433;45.596;8.408;2023-03-23T20:44:42;12.20;99.00
44707;DHT22;30433;45.596;8.408;2023-03-23T20:50:45;11.20;99.90
44707;DHT22;30433;45.596;8.408;2023-03-23T20:56:49;11.30;99.90
44707;DHT22;30433;45.596;8.408;2023-03-23T21:02:51;11.80;99.60
44707;DHT22;30433;45.596;8.408;2023-03-23T21:08:53;11.20;99.90
44707;DHT22;30433;45.596;8.408;2023-03-23T21:14:56;11.60;99.90
44707;DHT22;30433;45.596;8.408;2023-03-23T21:20:58;11.90;99.80
44707;DHT22;30433;45.596;8.408;2023-03-23T21:27:00;11.60;99.90
44707;DHT22;30433;45.596;8.408;2023-03-23T21:33:04;10.50;99.90
44707;DHT22;30433;45.596;8.408;2023-03-23T21:39:06;10.50;99.90
44707;DHT22;30433;45.596;8.408;2023-03-23T21:45:09;10.90;99.90
44707;DHT22;30433;45.596;8.408;2023-03-23T21:51:13;11.00;99.90
44707;DHT22;30433;45.596;8.408;2023-03-23T21:57:15;11.20;99.90
44707;DHT22;30433;45.596;8.408;2023-03-23T22:03:17;11.30;99.90
44707;DHT22;30433;45.596;8.408;2023-03-23T22:09:23;11.40;99.90
44707;DHT22;30433;45.596;8.408;2023-03-23T22:15:25;11.10;99.90
44707;DHT22;30433;45.596;8.408;2023-03-23T22:21:28;10.30;99.90
44707;DHT22;30433;45.596;8.408;2023-03-23T22:27:32;9.80;99.90
44707;DHT22;30433;45.596;8.408;2023-03-23T22:33:34;10.50;99.90
44707;DHT22;30433;45.596;8.408;2023-03-23T22:39:36;10.80;99.90
44707;DHT22;30433;45.596;8.408;2023-03-23T22:45:39;10.40;99.90
44707;DHT22;30433;45.596;8.408;2023-03-23T22:51:41;10.50;99.90
44707;DHT22;30433;45.596;8.408;2023-03-23T22:57:43;10.40;99.90
44707;DHT22;30433;45.596;8.408;2023-03-23T23:03:47;9.60;99.90
44707;DHT22;30433;45.596;8.408;2023-03-23T23:09:49;9.80;99.90
44707;DHT22;30433;45.596;8.408;2023-03-23T23:15:53;10.10;99.90
44707;DHT22;30433;45.596;8.408;2023-03-23T23:21:57;10.50;99.90
44707;DHT22;30433;45.596;8.408;2023-03-23T23:27:59;10.50;99.90
44707;DHT22;30433;45.596;8.408;2023-03-23T23:34:02;10.30;99.90
44707;DHT22;30433;45.596;8.408;2023-03-23T23:40:08;10.40;99.90
44707;DHT22;30433;45.596;8.408;2023-03-23T23:46:10;10.40;99.90
44707;DHT22;30433;45.596;8.408;2023-03-23T23:52:12;9.70;99.90
44707;DHT22;30433;45.596;8.408;2023-03-23T23:58:15;9.70;99.90
